createdAt,value
2019-01-28T00:02:36.149Z,1.60
2019-01-28T00:05:08.492Z,1.50
2019-01-28T00:07:44.771Z,1.50
2019-01-28T00:10:18.747Z,1.60
2019-01-28T00:12:55.954Z,1.70
2019-01-28T00:15:39.110Z,1.70
2019-01-28T00:18:13.831Z,1.60
2019-01-28T00:21:03.762Z,1.60
2019-01-28T00:23:38.169Z,1.60
2019-01-28T00:26:12.236Z,1.60
2019-01-28T00:28:50.053Z,1.60
2019-01-28T00:31:40.666Z,1.60
2019-01-28T00:34:18.464Z,1.60
2019-01-28T00:36:51.014Z,1.60
2019-01-28T00:39:30.371Z,1.70
2019-01-28T00:42:10.306Z,1.80
2019-01-28T00:44:46.536Z,1.70
2019-01-28T00:47:24.428Z,1.80
2019-01-28T00:49:58.235Z,1.80
2019-01-28T00:52:32.096Z,1.80
2019-01-28T00:55:06.465Z,1.80
2019-01-28T00:57:39.471Z,1.80
2019-01-28T01:00:17.960Z,1.80
2019-01-28T01:02:52.038Z,1.80
2019-01-28T01:05:25.474Z,1.80
2019-01-28T01:08:00.973Z,1.90
2019-01-28T01:10:33.015Z,1.80
2019-01-28T01:13:04.728Z,1.70
2019-01-28T01:15:42.958Z,1.70
2019-01-28T01:18:26.468Z,1.70
2019-01-28T01:21:05.853Z,1.70
2019-01-28T01:23:40.100Z,1.80
2019-01-28T01:26:22.217Z,1.70
2019-01-28T01:28:51.163Z,1.70
2019-01-28T01:31:37.536Z,1.80
2019-01-28T01:34:23.122Z,1.80
2019-01-28T01:36:57.372Z,1.70
2019-01-28T01:39:38.989Z,1.80
2019-01-28T01:42:18.333Z,1.70
2019-01-28T01:44:49.753Z,1.70
2019-01-28T01:47:25.124Z,1.70
2019-01-28T01:49:58.696Z,1.70
2019-01-28T01:52:38.243Z,1.80
2019-01-28T01:55:10.746Z,1.90
2019-01-28T01:57:44.875Z,1.80
2019-01-28T02:00:21.262Z,1.80
2019-01-28T02:02:55.481Z,1.90
2019-01-28T02:05:32.430Z,1.90
2019-01-28T02:08:04.380Z,1.90
2019-01-28T02:10:42.505Z,1.80
2019-01-28T02:16:09.549Z,1.80
2019-01-28T02:18:42.827Z,1.90
2019-01-28T02:21:16.038Z,1.90
2019-01-28T02:23:50.891Z,1.90
2019-01-28T02:26:30.169Z,1.80
2019-01-28T02:29:03.819Z,1.80
2019-01-28T02:31:36.661Z,1.80
2019-01-28T02:34:14.950Z,1.80
2019-01-28T02:36:48.378Z,1.80
2019-01-28T02:39:23.259Z,1.90
2019-01-28T02:42:09.458Z,1.90
2019-01-28T02:44:48.012Z,1.90
2019-01-28T02:47:21.478Z,1.90
2019-01-28T02:50:00.242Z,1.90
2019-01-28T02:52:44.968Z,2.00
2019-01-28T02:55:21.635Z,2.00
2019-01-28T02:58:00.833Z,1.90
2019-01-28T03:00:45.146Z,1.90
2019-01-28T03:03:23.693Z,2.00
2019-01-28T03:05:56.761Z,2.00
2019-01-28T03:08:30.346Z,2.00
2019-01-28T03:11:05.252Z,2.00
2019-01-28T03:13:39.789Z,2.00
2019-01-28T03:16:17.985Z,2.00
2019-01-28T03:18:52.766Z,1.90
2019-01-28T03:21:29.705Z,1.90
2019-01-28T03:24:02.572Z,1.90
2019-01-28T03:26:40.093Z,1.90
2019-01-28T03:29:12.079Z,1.90
2019-01-28T03:31:46.536Z,1.90
2019-01-28T03:34:19.607Z,1.80
2019-01-28T03:36:51.181Z,1.80
2019-01-28T03:39:22.705Z,1.80
2019-01-28T03:41:55.758Z,1.70
2019-01-28T03:44:31.436Z,1.80
2019-01-28T03:47:04.995Z,1.90
2019-01-28T03:49:37.026Z,1.90
2019-01-28T03:52:11.110Z,2.00
2019-01-28T03:54:42.941Z,2.00
2019-01-28T03:57:15.035Z,2.10
2019-01-28T03:59:49.830Z,2.10
2019-01-28T04:02:23.806Z,2.10
2019-01-28T04:05:00.309Z,2.10
2019-01-28T04:07:39.412Z,2.20
2019-01-28T04:10:22.730Z,2.20
2019-01-28T04:12:58.176Z,2.20
2019-01-28T04:15:32.557Z,2.30
2019-01-28T04:18:04.652Z,2.30
2019-01-28T04:20:35.970Z,2.20
2019-01-28T04:23:08.066Z,2.30
2019-01-28T04:25:43.533Z,2.20
2019-01-28T04:28:14.560Z,2.20
2019-01-28T04:30:45.564Z,2.10
2019-01-28T04:33:16.777Z,2.10
2019-01-28T04:35:49.811Z,2.20
2019-01-28T04:38:20.720Z,2.30
2019-01-28T04:40:53.059Z,2.30
2019-01-28T04:43:24.813Z,2.30
2019-01-28T04:46:03.276Z,2.30
2019-01-28T04:48:37.210Z,2.30
2019-01-28T04:51:11.019Z,2.30
2019-01-28T04:53:59.581Z,2.40
2019-01-28T04:56:32.971Z,2.30
2019-01-28T04:59:03.810Z,2.30
2019-01-28T05:01:36.261Z,2.30
2019-01-28T05:04:08.681Z,2.30
2019-01-28T05:06:41.820Z,2.20
2019-01-28T05:09:15.267Z,2.20
2019-01-28T05:11:47.759Z,2.30
2019-01-28T05:14:29.913Z,2.40
2019-01-28T05:17:05.769Z,2.30
2019-01-28T05:19:49.901Z,2.40
2019-01-28T05:22:30.313Z,2.40
2019-01-28T05:25:04.023Z,2.40
2019-01-28T05:27:40.874Z,2.40
2019-01-28T05:30:28.395Z,2.40
2019-01-28T05:33:01.750Z,2.40
2019-01-28T05:35:47.603Z,2.40
2019-01-28T05:38:26.324Z,2.40
2019-01-28T05:41:01.050Z,2.30
2019-01-28T05:43:35.267Z,2.10
2019-01-28T05:46:11.830Z,2.10
2019-01-28T05:48:45.136Z,2.20
2019-01-28T05:51:23.727Z,2.20
2019-01-28T05:53:58.611Z,2.30
2019-01-28T05:56:35.867Z,2.40
2019-01-28T05:59:18.634Z,2.40
2019-01-28T06:01:53.825Z,2.40
2019-01-28T06:04:29.750Z,2.50
2019-01-28T06:07:06.152Z,2.50
2019-01-28T06:09:41.503Z,2.50
2019-01-28T06:12:22.082Z,2.40
2019-01-28T06:14:54.408Z,2.40
2019-01-28T06:17:27.703Z,2.50
2019-01-28T06:20:03.108Z,2.50
2019-01-28T06:22:40.300Z,2.40
2019-01-28T06:25:12.351Z,2.40
2019-01-28T06:27:50.428Z,2.40
2019-01-28T06:30:28.553Z,2.40
2019-01-28T06:33:04.032Z,2.50
2019-01-28T06:35:48.795Z,2.50
2019-01-28T06:38:25.843Z,2.50
2019-01-28T06:41:02.547Z,2.50
2019-01-28T06:43:45.855Z,2.50
2019-01-28T06:46:16.632Z,2.50
2019-01-28T06:48:48.373Z,2.50
2019-01-28T06:51:24.789Z,2.40
2019-01-28T06:54:00.013Z,2.40
2019-01-28T06:56:47.368Z,2.40
2019-01-28T06:59:20.512Z,2.40
2019-01-28T07:01:58.927Z,2.40
2019-01-28T07:04:37.843Z,2.40
2019-01-28T07:07:10.029Z,2.40
2019-01-28T07:09:42.376Z,2.40
2019-01-28T07:12:26.985Z,2.50
2019-01-28T07:15:03.723Z,2.50
2019-01-28T07:17:42.296Z,2.50
2019-01-28T07:20:20.004Z,2.40
2019-01-28T07:22:53.926Z,2.40
2019-01-28T07:25:39.676Z,2.30
2019-01-28T07:28:17.176Z,2.30
2019-01-28T07:30:52.304Z,2.40
2019-01-28T07:33:40.426Z,2.40
2019-01-28T07:36:25.693Z,2.40
2019-01-28T07:39:03.263Z,2.40
2019-01-28T07:44:54.600Z,2.30
2019-01-28T07:47:28.115Z,2.40
2019-01-28T07:50:04.092Z,2.40
2019-01-28T07:52:38.926Z,2.40
2019-01-28T07:55:13.955Z,2.40
2019-01-28T07:57:49.973Z,2.30
2019-01-28T08:00:22.976Z,2.40
2019-01-28T08:02:58.136Z,2.40
2019-01-28T08:05:33.698Z,2.40
2019-01-28T08:08:18.043Z,2.40
2019-01-28T08:11:05.770Z,2.40
2019-01-28T08:13:52.405Z,2.40
2019-01-28T08:16:33.807Z,2.40
2019-01-28T08:19:05.967Z,2.40
2019-01-28T08:21:48.729Z,2.40
2019-01-28T08:24:23.221Z,2.40
2019-01-28T08:27:02.296Z,2.50
2019-01-28T08:29:45.986Z,2.50
2019-01-28T08:32:33.767Z,2.60
2019-01-28T08:35:10.692Z,2.60
2019-01-28T08:37:48.984Z,2.60
2019-01-28T08:40:21.837Z,2.60
2019-01-28T08:42:57.999Z,2.60
2019-01-28T08:45:32.836Z,2.60
2019-01-28T08:48:21.155Z,2.60
2019-01-28T08:50:52.522Z,2.60
2019-01-28T08:53:23.558Z,2.60
2019-01-28T08:55:54.750Z,2.60
2019-01-28T08:58:26.225Z,2.60
2019-01-28T09:00:58.487Z,2.60
2019-01-28T09:03:29.284Z,2.60
2019-01-28T09:06:00.178Z,2.50
2019-01-28T09:08:32.624Z,2.60
2019-01-28T09:11:04.246Z,2.60
2019-01-28T09:13:35.860Z,2.60
2019-01-28T09:16:07.195Z,2.70
2019-01-28T09:18:38.790Z,2.70
2019-01-28T09:21:09.907Z,2.70
2019-01-28T09:23:41.861Z,2.60
2019-01-28T09:26:13.699Z,2.70
2019-01-28T09:28:45.343Z,2.80
2019-01-28T09:31:16.420Z,2.80
2019-01-28T09:33:48.141Z,2.90
2019-01-28T09:36:23.815Z,2.90
2019-01-28T09:38:56.090Z,2.80
2019-01-28T09:41:28.941Z,2.90
2019-01-28T09:44:00.235Z,2.90
2019-01-28T09:46:31.822Z,2.90
2019-01-28T09:49:05.451Z,2.80
2019-01-28T09:51:39.838Z,2.80
2019-01-28T09:54:14.543Z,2.80
2019-01-28T09:56:48.185Z,2.70
2019-01-28T09:59:19.612Z,2.70
2019-01-28T10:01:56.761Z,2.80
2019-01-28T10:04:28.548Z,2.80
2019-01-28T10:07:02.122Z,2.80
2019-01-28T10:09:35.830Z,2.90
2019-01-28T10:12:13.412Z,2.80
2019-01-28T10:14:46.761Z,2.70
2019-01-28T10:17:19.285Z,2.70
2019-01-28T10:19:52.436Z,2.70
2019-01-28T10:22:25.529Z,2.70
2019-01-28T10:24:56.507Z,2.80
2019-01-28T10:27:28.034Z,2.70
2019-01-28T10:30:02.242Z,2.70
2019-01-28T10:32:36.271Z,2.70
2019-01-28T10:35:10.154Z,2.80
2019-01-28T10:37:42.553Z,2.80
2019-01-28T10:40:21.334Z,2.90
2019-01-28T10:42:55.143Z,3.00
2019-01-28T10:45:29.116Z,3.00
2019-01-28T10:48:01.193Z,3.00
2019-01-28T10:50:32.505Z,3.00
2019-01-28T10:53:04.212Z,3.00
2019-01-28T10:55:38.623Z,3.10
2019-01-28T10:58:09.516Z,3.10
2019-01-28T11:00:48.248Z,3.10
2019-01-28T11:03:24.030Z,3.20
2019-01-28T11:05:59.080Z,3.30
2019-01-28T11:08:34.403Z,3.40
2019-01-28T11:11:09.181Z,3.40
2019-01-28T11:13:40.682Z,3.50
2019-01-28T11:16:11.746Z,3.60
2019-01-28T11:18:43.087Z,3.70
2019-01-28T11:21:14.902Z,3.70
2019-01-28T11:23:54.145Z,3.90
2019-01-28T11:26:26.145Z,4.00
2019-01-28T11:29:00.745Z,4.00
2019-01-28T11:31:36.003Z,4.00
2019-01-28T11:34:10.801Z,4.00
2019-01-28T11:36:44.839Z,4.10
2019-01-28T11:39:25.154Z,4.10
2019-01-28T11:42:10.234Z,4.10
2019-01-28T11:44:36.761Z,4.10
2019-01-28T11:47:15.499Z,4.10
2019-01-28T11:49:49.223Z,4.20
2019-01-28T11:52:27.736Z,4.20
2019-01-28T11:55:00.470Z,4.20
2019-01-28T11:57:38.495Z,4.30
2019-01-28T12:00:24.870Z,4.30
2019-01-28T12:03:01.859Z,4.30
2019-01-28T12:05:40.814Z,4.40
2019-01-28T12:08:16.494Z,4.40
2019-01-28T12:11:02.052Z,4.40
2019-01-28T12:13:36.522Z,4.30
2019-01-28T12:16:13.452Z,4.40
2019-01-28T12:18:49.067Z,4.40
2019-01-28T12:21:21.507Z,4.50
2019-01-28T12:23:59.067Z,4.60
2019-01-28T12:26:39.718Z,4.60
2019-01-28T12:29:20.856Z,4.60
2019-01-28T12:32:07.939Z,4.60
2019-01-28T12:34:44.075Z,4.60
2019-01-28T12:37:24.422Z,4.50
2019-01-28T12:40:20.240Z,4.50
2019-01-28T12:42:54.976Z,4.50
2019-01-28T12:45:46.495Z,4.60
2019-01-28T12:48:23.058Z,4.60
2019-01-28T12:51:04.505Z,4.80
2019-01-28T12:53:42.542Z,4.80
2019-01-28T12:56:24.519Z,4.80
2019-01-28T12:59:08.989Z,4.80
2019-01-28T13:01:36.549Z,4.90
2019-01-28T13:04:14.719Z,5.00
2019-01-28T13:06:50.922Z,5.10
2019-01-28T13:09:27.085Z,5.20
2019-01-28T13:12:12.201Z,5.30
2019-01-28T13:14:46.148Z,5.40
2019-01-28T13:17:45.492Z,5.50
2019-01-28T13:20:22.808Z,5.40
2019-01-28T13:23:00.226Z,5.40
2019-01-28T13:25:40.351Z,5.30
2019-01-28T13:28:21.411Z,5.30
2019-01-28T13:30:58.471Z,5.30
2019-01-28T13:33:44.155Z,5.40
2019-01-28T13:36:20.814Z,5.40
2019-01-28T13:39:05.132Z,5.30
2019-01-28T13:41:39.920Z,5.30
2019-01-28T13:44:11.671Z,5.30
2019-01-28T13:46:44.866Z,5.40
2019-01-28T13:49:16.487Z,5.50
2019-01-28T13:51:51.388Z,5.40
2019-01-28T13:54:34.666Z,5.50
2019-01-28T13:57:06.697Z,5.40
2019-01-28T13:59:41.280Z,5.40
2019-01-28T14:02:12.979Z,5.50
2019-01-28T14:04:43.924Z,5.40
2019-01-28T14:07:16.436Z,5.50
2019-01-28T14:09:48.732Z,5.40
2019-01-28T14:12:24.216Z,5.40
2019-01-28T14:14:55.600Z,5.40
2019-01-28T14:17:27.387Z,5.40
2019-01-28T14:20:01.038Z,5.40
2019-01-28T14:22:33.055Z,5.40
2019-01-28T14:25:17.074Z,5.40
2019-01-28T14:27:52.541Z,5.50
2019-01-28T14:30:30.170Z,5.50
2019-01-28T14:33:01.940Z,5.50
2019-01-28T14:35:33.684Z,5.50
2019-01-28T14:38:07.188Z,5.40
2019-01-28T14:40:40.217Z,5.40
2019-01-28T14:43:12.042Z,5.40
2019-01-28T14:45:43.420Z,5.30
2019-01-28T14:48:15.702Z,5.30
2019-01-28T14:50:48.316Z,5.30
2019-01-28T14:53:19.998Z,5.30
2019-01-28T14:55:51.148Z,5.30
2019-01-28T14:58:23.144Z,5.30
2019-01-28T15:00:55.029Z,5.30
2019-01-28T15:03:26.486Z,5.40
2019-01-28T15:05:57.447Z,5.30
2019-01-28T15:08:31.927Z,5.20
2019-01-28T15:11:03.371Z,5.20
2019-01-28T15:13:34.457Z,5.20
2019-01-28T15:16:09.167Z,5.20
2019-01-28T15:18:41.175Z,5.20
2019-01-28T15:21:14.299Z,5.20
2019-01-28T15:23:45.283Z,5.10
2019-01-28T15:26:16.079Z,5.10
2019-01-28T15:28:47.015Z,4.90
2019-01-28T15:31:17.855Z,4.70
2019-01-28T15:33:48.677Z,4.70
2019-01-28T15:36:20.102Z,4.60
2019-01-28T15:38:50.978Z,4.50
2019-01-28T15:41:21.815Z,4.40
2019-01-28T15:43:54.124Z,4.40
2019-01-28T15:46:34.340Z,4.30
2019-01-28T15:49:06.307Z,4.30
2019-01-28T15:51:40.367Z,4.40
2019-01-28T15:54:22.387Z,4.20
2019-01-28T15:56:56.243Z,4.00
2019-01-28T15:59:29.961Z,4.00
2019-01-28T16:02:01.421Z,3.90
2019-01-28T16:04:34.932Z,3.90
2019-01-28T16:07:12.005Z,3.90
2019-01-28T16:09:49.810Z,3.90
2019-01-28T16:12:22.894Z,3.90
2019-01-28T16:14:57.373Z,4.00
2019-01-28T16:17:35.843Z,4.00
2019-01-28T16:20:09.071Z,4.00
2019-01-28T16:22:42.348Z,4.00
2019-01-28T16:25:18.381Z,4.00
2019-01-28T16:27:51.802Z,4.00
2019-01-28T16:30:26.600Z,3.90
2019-01-28T16:32:59.354Z,4.00
2019-01-28T16:35:30.898Z,4.00
2019-01-28T16:38:05.098Z,4.00
2019-01-28T16:41:00.262Z,4.00
2019-01-28T16:43:37.318Z,4.10
2019-01-28T16:46:27.720Z,4.00
2019-01-28T16:49:00.464Z,4.00
2019-01-28T16:51:37.881Z,3.90
2019-01-28T16:54:11.781Z,4.00
2019-01-28T16:56:44.987Z,4.00
2019-01-28T16:59:16.898Z,3.90
2019-01-28T17:01:48.174Z,3.90
2019-01-28T17:04:19.997Z,3.80
2019-01-28T17:06:55.160Z,3.80
2019-01-28T17:09:28.164Z,3.70
2019-01-28T17:11:59.766Z,3.80
2019-01-28T17:14:30.470Z,3.70
2019-01-28T17:17:03.595Z,3.80
2019-01-28T17:19:35.978Z,3.80
2019-01-28T17:22:08.349Z,3.80
2019-01-28T17:24:39.178Z,3.80
2019-01-28T17:27:10.329Z,3.80
2019-01-28T17:29:41.445Z,3.70
2019-01-28T17:32:12.425Z,3.70
2019-01-28T17:34:43.573Z,3.60
2019-01-28T17:37:14.843Z,3.60
2019-01-28T17:39:45.903Z,3.70
2019-01-28T17:42:17.778Z,3.60
2019-01-28T17:44:48.807Z,3.70
2019-01-28T17:47:22.989Z,3.70
2019-01-28T17:50:01.246Z,3.70
2019-01-28T17:52:26.756Z,3.80
2019-01-28T17:54:57.704Z,3.80
2019-01-28T17:57:28.686Z,3.80
2019-01-28T18:00:00.299Z,3.80
2019-01-28T18:02:31.709Z,3.60
2019-01-28T18:05:03.158Z,3.60
2019-01-28T18:07:34.079Z,3.60
2019-01-28T18:10:06.590Z,3.50
2019-01-28T18:12:37.413Z,3.50
2019-01-28T18:15:11.464Z,3.40
2019-01-28T18:17:45.425Z,3.50
2019-01-28T18:20:16.814Z,3.50
2019-01-28T18:22:47.887Z,3.50
2019-01-28T18:25:21.320Z,3.50
2019-01-28T18:27:52.278Z,3.40
2019-01-28T18:30:33.376Z,3.50
2019-01-28T18:33:04.454Z,3.40
2019-01-28T18:35:35.640Z,3.40
2019-01-28T18:38:07.056Z,3.50
2019-01-28T18:40:37.923Z,3.50
2019-01-28T18:43:08.893Z,3.50
2019-01-28T18:45:39.802Z,3.60
2019-01-28T18:48:11.940Z,3.60
2019-01-28T18:50:43.344Z,3.70
2019-01-28T18:53:14.973Z,3.70
2019-01-28T18:55:46.157Z,3.60
2019-01-28T18:58:17.715Z,3.60
2019-01-28T19:00:48.752Z,3.60
2019-01-28T19:03:21.842Z,3.60
2019-01-28T19:06:03.169Z,3.50
2019-01-28T19:08:58.702Z,3.40
2019-01-28T19:12:06.565Z,3.50
2019-01-28T19:14:56.883Z,3.50
2019-01-28T19:17:49.708Z,3.40
2019-01-28T19:20:37.998Z,3.40
2019-01-28T19:23:09.118Z,3.50
2019-01-28T19:25:40.514Z,3.50
2019-01-28T19:28:12.995Z,3.50
2019-01-28T19:30:44.325Z,3.50
2019-01-28T19:33:15.377Z,3.50
2019-01-28T19:35:47.386Z,3.50
2019-01-28T19:38:18.393Z,3.50
2019-01-28T19:40:52.467Z,3.50
2019-01-28T19:43:24.146Z,3.50
2019-01-28T19:45:55.282Z,3.50
2019-01-28T19:48:27.835Z,3.50
2019-01-28T19:50:58.848Z,3.50
2019-01-28T19:53:29.521Z,3.60
2019-01-28T19:56:00.201Z,3.70
2019-01-28T19:58:31.076Z,3.60
2019-01-28T20:01:01.710Z,3.60
2019-01-28T20:03:32.437Z,3.60
2019-01-28T20:06:04.623Z,3.50
2019-01-28T20:08:35.925Z,3.50
2019-01-28T20:11:07.596Z,3.50
2019-01-28T20:13:41.948Z,3.60
2019-01-28T20:16:12.783Z,3.60
2019-01-28T20:18:43.965Z,3.50
2019-01-28T20:21:14.836Z,3.40
2019-01-28T20:23:45.607Z,3.40
2019-01-28T20:26:16.521Z,3.30
2019-01-28T20:28:47.314Z,3.40
2019-01-28T20:31:20.124Z,3.00
2019-01-28T20:33:51.259Z,3.30
2019-01-28T20:36:22.395Z,3.30
2019-01-28T20:38:53.365Z,3.30
2019-01-28T20:41:24.547Z,3.30
2019-01-28T20:43:58.883Z,3.20
2019-01-28T20:46:31.198Z,3.20
2019-01-28T20:49:04.780Z,3.10
2019-01-28T20:51:35.718Z,3.10
2019-01-28T20:54:07.335Z,3.00
2019-01-28T20:56:38.273Z,2.90
2019-01-28T20:59:09.021Z,2.90
2019-01-28T21:01:40.568Z,2.80
2019-01-28T21:04:11.458Z,2.90
2019-01-28T21:06:42.119Z,2.90
2019-01-28T21:09:13.276Z,2.90
2019-01-28T21:11:44.382Z,2.80
2019-01-28T21:14:15.753Z,2.80
2019-01-28T21:16:46.540Z,2.80
2019-01-28T21:19:17.330Z,2.80
2019-01-28T21:21:48.202Z,2.80
2019-01-28T21:24:19.098Z,2.90
2019-01-28T21:26:50.038Z,2.90
2019-01-28T21:29:21.371Z,2.90
2019-01-28T21:31:52.146Z,2.80
2019-01-28T21:34:22.926Z,2.80
2019-01-28T21:37:19.415Z,2.90
2019-01-28T21:39:50.088Z,2.80
2019-01-28T21:42:20.768Z,2.80
2019-01-28T21:44:51.828Z,2.80
2019-01-28T21:47:22.514Z,2.80
2019-01-28T21:49:53.219Z,2.90
2019-01-28T21:52:24.483Z,2.90
2019-01-28T21:54:55.144Z,2.80
2019-01-28T21:57:25.850Z,2.80
2019-01-28T21:59:56.632Z,2.70
2019-01-28T22:02:27.277Z,2.80
2019-01-28T22:05:01.407Z,2.80
2019-01-28T22:07:32.308Z,2.80
2019-01-28T22:10:03.052Z,2.80
2019-01-28T22:12:33.700Z,2.90
2019-01-28T22:15:05.579Z,3.00
2019-01-28T22:17:36.320Z,3.00
2019-01-28T22:20:08.347Z,3.00
2019-01-28T22:22:40.260Z,3.10
2019-01-28T22:25:12.467Z,3.10
2019-01-28T22:27:43.100Z,3.10
2019-01-28T22:30:19.053Z,3.10
2019-01-28T22:32:50.186Z,3.10
2019-01-28T22:35:21.170Z,3.10
2019-01-28T22:37:51.911Z,3.00
2019-01-28T22:40:22.695Z,3.00
2019-01-28T22:42:53.364Z,3.00
2019-01-28T22:45:24.130Z,3.00
2019-01-28T22:47:54.928Z,3.10
2019-01-28T22:50:25.847Z,3.20
2019-01-28T22:52:56.621Z,3.20
2019-01-28T22:55:27.277Z,3.30
2019-01-28T22:57:58.776Z,3.40
2019-01-28T23:01:01.349Z,3.40
2019-01-28T23:03:31.984Z,3.40
2019-01-28T23:06:03.178Z,3.40
2019-01-28T23:08:33.983Z,3.40
2019-01-28T23:11:04.809Z,3.40
2019-01-28T23:13:37.009Z,3.30
2019-01-28T23:16:08.565Z,3.20
2019-01-28T23:18:39.531Z,3.10
2019-01-28T23:21:10.279Z,3.10
2019-01-28T23:23:41.377Z,3.10
2019-01-28T23:26:12.553Z,3.20
2019-01-28T23:28:43.211Z,3.20
2019-01-28T23:31:14.000Z,3.30
2019-01-28T23:33:44.918Z,3.40
2019-01-28T23:36:15.796Z,3.40
2019-01-28T23:38:46.390Z,3.50
2019-01-28T23:41:17.594Z,3.50
2019-01-28T23:43:48.540Z,3.50
2019-01-28T23:46:20.652Z,3.60
2019-01-28T23:48:51.429Z,3.60
2019-01-28T23:51:22.309Z,3.60
2019-01-28T23:53:52.895Z,3.60
2019-01-28T23:56:23.665Z,3.60
2019-01-28T23:58:54.411Z,3.50
